sensor_id;sensor_type;location;lat;lon;timestamp;P1;durP1;ratioP1;P2;durP2;ratioP2
2386;SDS011;49473;50.772;8.768;2023-03-14T00:01:27;2.30;;;1.10;;
2386;SDS011;49473;50.772;8.768;2023-03-14T00:03:53;1.30;;;0.90;;
2386;SDS011;49473;50.772;8.768;2023-03-14T00:06:20;1.47;;;1.00;;
2386;SDS011;49473;50.772;8.768;2023-03-14T00:08:48;1.43;;;0.93;;
2386;SDS011;49473;50.772;8.768;2023-03-14T00:11:17;2.67;;;1.10;;
2386;SDS011;49473;50.772;8.768;2023-03-14T00:13:47;3.07;;;1.37;;
2386;SDS011;49473;50.772;8.768;2023-03-14T00:16:14;1.30;;;0.80;;
2386;SDS011;49473;50.772;8.768;2023-03-14T00:18:41;3.40;;;1.50;;
2386;SDS011;49473;50.772;8.768;2023-03-14T00:21:08;2.07;;;0.87;;
2386;SDS011;49473;50.772;8.768;2023-03-14T00:23:36;1.20;;;1.10;;
2386;SDS011;49473;50.772;8.768;2023-03-14T00:26:06;4.40;;;0.87;;
2386;SDS011;49473;50.772;8.768;2023-03-14T00:28:34;3.70;;;1.27;;
2386;SDS011;49473;50.772;8.768;2023-03-14T00:31:03;1.50;;;1.00;;
2386;SDS011;49473;50.772;8.768;2023-03-14T00:33:30;2.00;;;1.00;;
2386;SDS011;49473;50.772;8.768;2023-03-14T00:35:58;1.53;;;0.93;;
2386;SDS011;49473;50.772;8.768;2023-03-14T00:38:26;1.37;;;1.00;;
2386;SDS011;49473;50.772;8.768;2023-03-14T00:40:53;2.27;;;1.30;;
2386;SDS011;49473;50.772;8.768;2023-03-14T00:43:20;2.70;;;1.30;;
2386;SDS011;49473;50.772;8.768;2023-03-14T00:45:47;7.60;;;2.63;;
2386;SDS011;49473;50.772;8.768;2023-03-14T00:48:15;1.70;;;1.23;;
2386;SDS011;49473;50.772;8.768;2023-03-14T00:50:42;2.27;;;1.20;;
2386;SDS011;49473;50.772;8.768;2023-03-14T00:53:09;2.20;;;1.47;;
2386;SDS011;49473;50.772;8.768;2023-03-14T00:55:36;1.43;;;1.13;;
2386;SDS011;49473;50.772;8.768;2023-03-14T00:58:03;2.00;;;1.40;;
2386;SDS011;49473;50.772;8.768;2023-03-14T01:00:30;1.40;;;1.30;;
2386;SDS011;49473;50.772;8.768;2023-03-14T01:02:57;2.77;;;1.47;;
2386;SDS011;49473;50.772;8.768;2023-03-14T01:05:25;5.00;;;1.63;;
2386;SDS011;49473;50.772;8.768;2023-03-14T01:07:52;2.90;;;1.50;;
2386;SDS011;49473;50.772;8.768;2023-03-14T01:10:19;1.83;;;1.63;;
2386;SDS011;49473;50.772;8.768;2023-03-14T01:12:46;1.73;;;1.30;;
2386;SDS011;49473;50.772;8.768;2023-03-14T01:15:13;2.30;;;1.50;;
2386;SDS011;49473;50.772;8.768;2023-03-14T01:17:40;2.30;;;1.90;;
2386;SDS011;49473;50.772;8.768;2023-03-14T01:20:08;2.10;;;2.00;;
2386;SDS011;49473;50.772;8.768;2023-03-14T01:22:38;4.27;;;1.63;;
2386;SDS011;49473;50.772;8.768;2023-03-14T01:25:06;2.73;;;1.80;;
2386;SDS011;49473;50.772;8.768;2023-03-14T01:27:34;3.63;;;1.80;;
2386;SDS011;49473;50.772;8.768;2023-03-14T01:30:01;3.37;;;2.00;;
2386;SDS011;49473;50.772;8.768;2023-03-14T01:32:28;1.60;;;1.50;;
2386;SDS011;49473;50.772;8.768;2023-03-14T01:34:55;4.53;;;2.00;;
2386;SDS011;49473;50.772;8.768;2023-03-14T01:37:22;4.67;;;1.83;;
2386;SDS011;49473;50.772;8.768;2023-03-14T01:39:51;3.67;;;1.90;;
2386;SDS011;49473;50.772;8.768;2023-03-14T01:42:18;5.03;;;1.83;;
2386;SDS011;49473;50.772;8.768;2023-03-14T01:44:48;3.70;;;1.70;;
2386;SDS011;49473;50.772;8.768;2023-03-14T01:47:16;3.17;;;1.90;;
2386;SDS011;49473;50.772;8.768;2023-03-14T01:49:43;4.17;;;1.83;;
2386;SDS011;49473;50.772;8.768;2023-03-14T01:52:13;3.37;;;1.80;;
2386;SDS011;49473;50.772;8.768;2023-03-14T01:54:43;4.80;;;1.60;;
2386;SDS011;49473;50.772;8.768;2023-03-14T01:57:14;4.10;;;1.90;;
2386;SDS011;49473;50.772;8.768;2023-03-14T01:59:46;6.10;;;1.90;;
2386;SDS011;49473;50.772;8.768;2023-03-14T02:02:17;5.67;;;2.67;;
2386;SDS011;49473;50.772;8.768;2023-03-14T02:04:44;4.40;;;2.03;;
2386;SDS011;49473;50.772;8.768;2023-03-14T02:07:12;3.30;;;1.73;;
2386;SDS011;49473;50.772;8.768;2023-03-14T02:09:41;4.70;;;2.03;;
2386;SDS011;49473;50.772;8.768;2023-03-14T02:12:10;3.00;;;1.70;;
2386;SDS011;49473;50.772;8.768;2023-03-14T02:14:41;1.60;;;1.47;;
2386;SDS011;49473;50.772;8.768;2023-03-14T02:17:13;3.53;;;1.87;;
2386;SDS011;49473;50.772;8.768;2023-03-14T02:19:45;4.63;;;1.83;;
2386;SDS011;49473;50.772;8.768;2023-03-14T02:22:20;3.20;;;1.80;;
2386;SDS011;49473;50.772;8.768;2023-03-14T02:24:50;3.40;;;1.77;;
2386;SDS011;49473;50.772;8.768;2023-03-14T02:27:25;3.47;;;1.77;;
2386;SDS011;49473;50.772;8.768;2023-03-14T02:29:54;3.83;;;1.57;;
2386;SDS011;49473;50.772;8.768;2023-03-14T02:32:23;4.20;;;2.57;;
2386;SDS011;49473;50.772;8.768;2023-03-14T02:34:53;3.30;;;2.10;;
2386;SDS011;49473;50.772;8.768;2023-03-14T02:37:23;4.33;;;2.00;;
2386;SDS011;49473;50.772;8.768;2023-03-14T02:39:54;4.17;;;2.30;;
2386;SDS011;49473;50.772;8.768;2023-03-14T02:42:21;2.93;;;2.00;;
2386;SDS011;49473;50.772;8.768;2023-03-14T02:44:50;2.43;;;1.77;;
2386;SDS011;49473;50.772;8.768;2023-03-14T02:47:18;3.80;;;1.70;;
2386;SDS011;49473;50.772;8.768;2023-03-14T02:49:50;3.10;;;2.13;;
2386;SDS011;49473;50.772;8.768;2023-03-14T02:52:19;3.30;;;1.97;;
2386;SDS011;49473;50.772;8.768;2023-03-14T02:54:46;4.27;;;1.73;;
2386;SDS011;49473;50.772;8.768;2023-03-14T02:57:13;3.33;;;1.87;;
2386;SDS011;49473;50.772;8.768;2023-03-14T02:59:39;2.47;;;2.27;;
2386;SDS011;49473;50.772;8.768;2023-03-14T03:02:08;6.57;;;2.13;;
2386;SDS011;49473;50.772;8.768;2023-03-14T03:04:35;2.97;;;1.50;;
2386;SDS011;49473;50.772;8.768;2023-03-14T03:07:01;1.80;;;1.50;;
2386;SDS011;49473;50.772;8.768;2023-03-14T03:09:28;4.40;;;2.23;;
2386;SDS011;49473;50.772;8.768;2023-03-14T03:11:55;2.17;;;1.60;;
2386;SDS011;49473;50.772;8.768;2023-03-14T03:14:22;2.90;;;1.57;;
2386;SDS011;49473;50.772;8.768;2023-03-14T03:16:49;6.50;;;2.20;;
2386;SDS011;49473;50.772;8.768;2023-03-14T03:19:17;5.50;;;1.90;;
2386;SDS011;49473;50.772;8.768;2023-03-14T03:21:43;3.07;;;1.80;;
2386;SDS011;49473;50.772;8.768;2023-03-14T03:24:10;6.23;;;1.83;;
2386;SDS011;49473;50.772;8.768;2023-03-14T03:26:37;2.43;;;1.60;;
2386;SDS011;49473;50.772;8.768;2023-03-14T03:29:04;3.60;;;2.00;;
2386;SDS011;49473;50.772;8.768;2023-03-14T03:31:30;2.27;;;1.33;;
2386;SDS011;49473;50.772;8.768;2023-03-14T03:33:57;3.57;;;1.63;;
2386;SDS011;49473;50.772;8.768;2023-03-14T03:36:25;3.03;;;1.80;;
2386;SDS011;49473;50.772;8.768;2023-03-14T03:38:52;2.93;;;1.50;;
2386;SDS011;49473;50.772;8.768;2023-03-14T03:41:19;4.20;;;1.50;;
2386;SDS011;49473;50.772;8.768;2023-03-14T03:43:46;3.13;;;1.60;;
2386;SDS011;49473;50.772;8.768;2023-03-14T03:46:12;1.53;;;1.30;;
2386;SDS011;49473;50.772;8.768;2023-03-14T03:48:39;2.50;;;1.67;;
2386;SDS011;49473;50.772;8.768;2023-03-14T03:51:06;1.57;;;1.47;;
2386;SDS011;49473;50.772;8.768;2023-03-14T03:53:34;2.53;;;1.70;;
2386;SDS011;49473;50.772;8.768;2023-03-14T03:56:01;2.90;;;1.93;;
2386;SDS011;49473;50.772;8.768;2023-03-14T03:58:28;1.83;;;1.47;;
2386;SDS011;49473;50.772;8.768;2023-03-14T04:00:55;4.13;;;1.67;;
2386;SDS011;49473;50.772;8.768;2023-03-14T04:03:21;3.57;;;2.17;;
2386;SDS011;49473;50.772;8.768;2023-03-14T04:05:57;2.57;;;2.00;;
2386;SDS011;49473;50.772;8.768;2023-03-14T04:08:24;3.80;;;2.07;;
2386;SDS011;49473;50.772;8.768;2023-03-14T04:10:55;3.23;;;1.67;;
2386;SDS011;49473;50.772;8.768;2023-03-14T04:13:22;3.17;;;1.50;;
2386;SDS011;49473;50.772;8.768;2023-03-14T04:15:49;1.80;;;1.50;;
2386;SDS011;49473;50.772;8.768;2023-03-14T04:18:16;5.37;;;1.70;;
2386;SDS011;49473;50.772;8.768;2023-03-14T04:20:43;3.93;;;1.43;;
2386;SDS011;49473;50.772;8.768;2023-03-14T04:23:10;3.60;;;1.53;;
2386;SDS011;49473;50.772;8.768;2023-03-14T04:25:37;2.50;;;1.37;;
2386;SDS011;49473;50.772;8.768;2023-03-14T04:28:05;1.93;;;1.60;;
2386;SDS011;49473;50.772;8.768;2023-03-14T04:30:32;2.97;;;1.50;;
2386;SDS011;49473;50.772;8.768;2023-03-14T04:32:59;3.97;;;1.90;;
2386;SDS011;49473;50.772;8.768;2023-03-14T04:35:26;5.70;;;1.47;;
2386;SDS011;49473;50.772;8.768;2023-03-14T04:37:52;2.90;;;1.70;;
2386;SDS011;49473;50.772;8.768;2023-03-14T04:40:19;4.20;;;1.70;;
2386;SDS011;49473;50.772;8.768;2023-03-14T04:42:46;4.23;;;1.93;;
2386;SDS011;49473;50.772;8.768;2023-03-14T04:45:14;2.30;;;1.40;;
2386;SDS011;49473;50.772;8.768;2023-03-14T04:47:41;4.93;;;1.80;;
2386;SDS011;49473;50.772;8.768;2023-03-14T04:50:08;5.47;;;1.77;;
2386;SDS011;49473;50.772;8.768;2023-03-14T04:52:35;3.80;;;1.70;;
2386;SDS011;49473;50.772;8.768;2023-03-14T04:55:02;3.80;;;1.30;;
2386;SDS011;49473;50.772;8.768;2023-03-14T04:57:30;3.07;;;1.40;;
2386;SDS011;49473;50.772;8.768;2023-03-14T04:59:56;3.40;;;1.50;;
2386;SDS011;49473;50.772;8.768;2023-03-14T05:02:24;4.50;;;2.00;;
2386;SDS011;49473;50.772;8.768;2023-03-14T05:04:52;2.17;;;1.30;;
2386;SDS011;49473;50.772;8.768;2023-03-14T05:07:18;3.37;;;1.70;;
2386;SDS011;49473;50.772;8.768;2023-03-14T05:09:46;3.87;;;2.20;;
2386;SDS011;49473;50.772;8.768;2023-03-14T05:12:13;2.43;;;1.40;;
2386;SDS011;49473;50.772;8.768;2023-03-14T05:14:39;4.37;;;1.40;;
2386;SDS011;49473;50.772;8.768;2023-03-14T05:17:06;3.13;;;1.37;;
2386;SDS011;49473;50.772;8.768;2023-03-14T05:19:35;1.43;;;1.20;;
2386;SDS011;49473;50.772;8.768;2023-03-14T05:22:01;2.80;;;1.30;;
2386;SDS011;49473;50.772;8.768;2023-03-14T05:24:28;2.43;;;1.47;;
2386;SDS011;49473;50.772;8.768;2023-03-14T05:26:56;1.70;;;1.20;;
2386;SDS011;49473;50.772;8.768;2023-03-14T05:29:23;2.50;;;1.30;;
2386;SDS011;49473;50.772;8.768;2023-03-14T05:31:50;1.93;;;1.00;;
2386;SDS011;49473;50.772;8.768;2023-03-14T05:34:17;2.10;;;1.30;;
2386;SDS011;49473;50.772;8.768;2023-03-14T05:36:45;1.00;;;0.97;;
2386;SDS011;49473;50.772;8.768;2023-03-14T05:39:12;3.70;;;1.60;;
2386;SDS011;49473;50.772;8.768;2023-03-14T05:41:38;4.57;;;1.30;;
2386;SDS011;49473;50.772;8.768;2023-03-14T05:44:05;2.40;;;1.07;;
2386;SDS011;49473;50.772;8.768;2023-03-14T05:46:32;1.70;;;1.60;;
2386;SDS011;49473;50.772;8.768;2023-03-14T05:48:59;2.90;;;1.33;;
2386;SDS011;49473;50.772;8.768;2023-03-14T05:51:26;6.10;;;1.50;;
2386;SDS011;49473;50.772;8.768;2023-03-14T05:53:54;2.30;;;1.30;;
2386;SDS011;49473;50.772;8.768;2023-03-14T05:56:21;2.57;;;0.93;;
2386;SDS011;49473;50.772;8.768;2023-03-14T05:58:47;3.30;;;1.03;;
2386;SDS011;49473;50.772;8.768;2023-03-14T06:01:14;1.53;;;1.10;;
2386;SDS011;49473;50.772;8.768;2023-03-14T06:03:41;3.20;;;1.07;;
2386;SDS011;49473;50.772;8.768;2023-03-14T06:06:08;0.90;;;0.90;;
2386;SDS011;49473;50.772;8.768;2023-03-14T06:08:34;2.40;;;1.13;;
2386;SDS011;49473;50.772;8.768;2023-03-14T06:11:03;1.70;;;0.90;;
2386;SDS011;49473;50.772;8.768;2023-03-14T06:13:31;2.10;;;0.90;;
2386;SDS011;49473;50.772;8.768;2023-03-14T06:15:57;2.17;;;1.03;;
2386;SDS011;49473;50.772;8.768;2023-03-14T06:18:24;3.10;;;1.20;;
2386;SDS011;49473;50.772;8.768;2023-03-14T06:20:53;1.70;;;0.80;;
2386;SDS011;49473;50.772;8.768;2023-03-14T06:23:20;1.23;;;0.77;;
2386;SDS011;49473;50.772;8.768;2023-03-14T06:25:47;2.30;;;0.90;;
2386;SDS011;49473;50.772;8.768;2023-03-14T06:28:15;2.03;;;1.00;;
2386;SDS011;49473;50.772;8.768;2023-03-14T06:30:42;0.60;;;0.60;;
2386;SDS011;49473;50.772;8.768;2023-03-14T06:33:09;1.83;;;0.80;;
2386;SDS011;49473;50.772;8.768;2023-03-14T06:35:36;2.90;;;0.93;;
2386;SDS011;49473;50.772;8.768;2023-03-14T06:38:03;3.97;;;0.83;;
2386;SDS011;49473;50.772;8.768;2023-03-14T06:40:29;2.40;;;1.27;;
2386;SDS011;49473;50.772;8.768;2023-03-14T06:42:56;5.03;;;0.90;;
2386;SDS011;49473;50.772;8.768;2023-03-14T06:45:25;1.67;;;1.20;;
2386;SDS011;49473;50.772;8.768;2023-03-14T06:47:51;3.07;;;1.47;;
2386;SDS011;49473;50.772;8.768;2023-03-14T06:50:18;3.77;;;3.03;;
2386;SDS011;49473;50.772;8.768;2023-03-14T06:52:47;4.77;;;4.27;;
2386;SDS011;49473;50.772;8.768;2023-03-14T06:55:14;3.73;;;3.27;;
2386;SDS011;49473;50.772;8.768;2023-03-14T06:57:41;0.73;;;0.70;;
2386;SDS011;49473;50.772;8.768;2023-03-14T07:00:10;1.37;;;0.70;;
2386;SDS011;49473;50.772;8.768;2023-03-14T07:02:39;1.07;;;0.73;;
2386;SDS011;49473;50.772;8.768;2023-03-14T07:05:06;0.60;;;0.60;;
2386;SDS011;49473;50.772;8.768;2023-03-14T07:07:35;1.30;;;0.60;;
2386;SDS011;49473;50.772;8.768;2023-03-14T07:10:02;1.00;;;0.70;;
2386;SDS011;49473;50.772;8.768;2023-03-14T07:12:29;1.07;;;0.50;;
2386;SDS011;49473;50.772;8.768;2023-03-14T07:14:56;1.27;;;0.50;;
2386;SDS011;49473;50.772;8.768;2023-03-14T07:17:22;1.63;;;0.60;;
2386;SDS011;49473;50.772;8.768;2023-03-14T07:19:50;1.10;;;0.53;;
2386;SDS011;49473;50.772;8.768;2023-03-14T07:22:17;0.53;;;0.53;;
2386;SDS011;49473;50.772;8.768;2023-03-14T07:24:44;0.40;;;0.40;;
2386;SDS011;49473;50.772;8.768;2023-03-14T07:27:12;0.70;;;0.50;;
2386;SDS011;49473;50.772;8.768;2023-03-14T07:29:38;0.50;;;0.37;;
2386;SDS011;49473;50.772;8.768;2023-03-14T07:32:05;1.03;;;0.50;;
2386;SDS011;49473;50.772;8.768;2023-03-14T07:34:33;1.53;;;0.53;;
2386;SDS011;49473;50.772;8.768;2023-03-14T07:37:01;0.80;;;0.30;;
2386;SDS011;49473;50.772;8.768;2023-03-14T07:39:30;0.40;;;0.30;;
2386;SDS011;49473;50.772;8.768;2023-03-14T07:41:57;0.93;;;0.80;;
2386;SDS011;49473;50.772;8.768;2023-03-14T07:44:23;0.87;;;0.60;;
2386;SDS011;49473;50.772;8.768;2023-03-14T07:46:50;1.03;;;0.90;;
2386;SDS011;49473;50.772;8.768;2023-03-14T07:49:17;0.80;;;0.53;;
2386;SDS011;49473;50.772;8.768;2023-03-14T07:51:44;0.97;;;0.50;;
2386;SDS011;49473;50.772;8.768;2023-03-14T07:54:15;1.07;;;0.53;;
2386;SDS011;49473;50.772;8.768;2023-03-14T07:56:42;1.70;;;0.90;;
2386;SDS011;49473;50.772;8.768;2023-03-14T07:59:08;1.37;;;0.50;;
2386;SDS011;49473;50.772;8.768;2023-03-14T08:01:36;1.90;;;0.60;;
2386;SDS011;49473;50.772;8.768;2023-03-14T08:04:02;2.30;;;0.60;;
2386;SDS011;49473;50.772;8.768;2023-03-14T08:06:29;1.63;;;0.80;;
2386;SDS011;49473;50.772;8.768;2023-03-14T08:08:56;0.90;;;0.60;;
2386;SDS011;49473;50.772;8.768;2023-03-14T08:11:24;0.73;;;0.50;;
2386;SDS011;49473;50.772;8.768;2023-03-14T08:13:51;0.57;;;0.50;;
2386;SDS011;49473;50.772;8.768;2023-03-14T08:16:18;2.73;;;0.47;;
2386;SDS011;49473;50.772;8.768;2023-03-14T08:18:45;0.93;;;0.60;;
2386;SDS011;49473;50.772;8.768;2023-03-14T08:21:12;0.93;;;0.80;;
2386;SDS011;49473;50.772;8.768;2023-03-14T08:23:39;1.10;;;0.50;;
2386;SDS011;49473;50.772;8.768;2023-03-14T08:26:06;0.87;;;0.60;;
2386;SDS011;49473;50.772;8.768;2023-03-14T08:28:35;2.00;;;0.60;;
2386;SDS011;49473;50.772;8.768;2023-03-14T08:31:01;0.70;;;0.43;;
2386;SDS011;49473;50.772;8.768;2023-03-14T08:33:29;1.07;;;0.43;;
2386;SDS011;49473;50.772;8.768;2023-03-14T08:35:56;3.10;;;0.70;;
2386;SDS011;49473;50.772;8.768;2023-03-14T08:38:24;1.03;;;0.60;;
2386;SDS011;49473;50.772;8.768;2023-03-14T08:40:54;0.67;;;0.50;;
2386;SDS011;49473;50.772;8.768;2023-03-14T08:43:22;2.20;;;0.40;;
2386;SDS011;49473;50.772;8.768;2023-03-14T08:45:50;1.17;;;0.67;;
2386;SDS011;49473;50.772;8.768;2023-03-14T08:48:17;1.07;;;0.90;;
2386;SDS011;49473;50.772;8.768;2023-03-14T08:50:44;1.10;;;0.80;;
2386;SDS011;49473;50.772;8.768;2023-03-14T08:53:11;2.20;;;0.70;;
2386;SDS011;49473;50.772;8.768;2023-03-14T08:55:38;1.13;;;0.57;;
2386;SDS011;49473;50.772;8.768;2023-03-14T08:58:05;0.87;;;0.43;;
2386;SDS011;49473;50.772;8.768;2023-03-14T09:00:32;1.40;;;0.70;;
2386;SDS011;49473;50.772;8.768;2023-03-14T09:03:00;2.30;;;0.90;;
2386;SDS011;49473;50.772;8.768;2023-03-14T09:05:26;0.87;;;0.50;;
2386;SDS011;49473;50.772;8.768;2023-03-14T09:07:53;0.73;;;0.50;;
2386;SDS011;49473;50.772;8.768;2023-03-14T09:10:20;1.47;;;0.47;;
2386;SDS011;49473;50.772;8.768;2023-03-14T09:12:47;0.60;;;0.57;;
2386;SDS011;49473;50.772;8.768;2023-03-14T09:15:14;1.17;;;0.40;;
2386;SDS011;49473;50.772;8.768;2023-03-14T09:17:42;2.00;;;0.80;;
2386;SDS011;49473;50.772;8.768;2023-03-14T09:20:10;1.33;;;0.40;;
2386;SDS011;49473;50.772;8.768;2023-03-14T09:22:39;0.97;;;0.70;;
2386;SDS011;49473;50.772;8.768;2023-03-14T09:25:06;0.50;;;0.40;;
2386;SDS011;49473;50.772;8.768;2023-03-14T09:27:33;1.63;;;0.57;;
2386;SDS011;49473;50.772;8.768;2023-03-14T09:30:00;1.57;;;0.53;;
2386;SDS011;49473;50.772;8.768;2023-03-14T09:32:27;0.40;;;0.40;;
2386;SDS011;49473;50.772;8.768;2023-03-14T09:34:53;0.70;;;0.37;;
2386;SDS011;49473;50.772;8.768;2023-03-14T09:37:22;0.73;;;0.60;;
2386;SDS011;49473;50.772;8.768;2023-03-14T09:39:48;0.50;;;0.37;;
2386;SDS011;49473;50.772;8.768;2023-03-14T09:42:16;1.77;;;0.50;;
2386;SDS011;49473;50.772;8.768;2023-03-14T09:44:49;1.60;;;0.60;;
2386;SDS011;49473;50.772;8.768;2023-03-14T09:47:20;2.40;;;0.77;;
2386;SDS011;49473;50.772;8.768;2023-03-14T09:49:48;0.73;;;0.50;;
2386;SDS011;49473;50.772;8.768;2023-03-14T09:52:15;2.67;;;1.87;;
2386;SDS011;49473;50.772;8.768;2023-03-14T09:54:46;4.10;;;2.40;;
2386;SDS011;49473;50.772;8.768;2023-03-14T09:57:17;1.23;;;0.90;;
2386;SDS011;49473;50.772;8.768;2023-03-14T09:59:45;0.50;;;0.50;;
2386;SDS011;49473;50.772;8.768;2023-03-14T10:02:16;0.40;;;0.40;;
2386;SDS011;49473;50.772;8.768;2023-03-14T10:04:45;1.03;;;0.40;;
2386;SDS011;49473;50.772;8.768;2023-03-14T10:07:13;1.20;;;1.10;;
2386;SDS011;49473;50.772;8.768;2023-03-14T10:09:46;5.83;;;4.33;;
2386;SDS011;49473;50.772;8.768;2023-03-14T10:12:16;2.47;;;2.27;;
2386;SDS011;49473;50.772;8.768;2023-03-14T10:14:45;1.47;;;0.93;;
2386;SDS011;49473;50.772;8.768;2023-03-14T10:17:13;1.13;;;0.90;;
2386;SDS011;49473;50.772;8.768;2023-03-14T10:19:51;0.90;;;0.43;;
2386;SDS011;49473;50.772;8.768;2023-03-14T10:22:20;1.33;;;0.50;;
2386;SDS011;49473;50.772;8.768;2023-03-14T10:24:52;0.50;;;0.40;;
2386;SDS011;49473;50.772;8.768;2023-03-14T10:27:23;0.70;;;0.40;;
2386;SDS011;49473;50.772;8.768;2023-03-14T10:29:55;0.40;;;0.30;;
2386;SDS011;49473;50.772;8.768;2023-03-14T10:32:27;0.73;;;0.30;;
2386;SDS011;49473;50.772;8.768;2023-03-14T10:37:52;0.30;;;0.30;;
2386;SDS011;49473;50.772;8.768;2023-03-14T10:40:26;0.50;;;0.40;;
2386;SDS011;49473;50.772;8.768;2023-03-14T10:42:55;1.43;;;0.50;;
2386;SDS011;49473;50.772;8.768;2023-03-14T10:45:33;0.40;;;0.40;;
2386;SDS011;49473;50.772;8.768;2023-03-14T10:48:07;0.60;;;0.40;;
2386;SDS011;49473;50.772;8.768;2023-03-14T10:50:53;0.70;;;0.47;;
2386;SDS011;49473;50.772;8.768;2023-03-14T10:53:21;1.40;;;0.60;;
2386;SDS011;49473;50.772;8.768;2023-03-14T10:55:50;1.10;;;0.37;;
2386;SDS011;49473;50.772;8.768;2023-03-14T10:58:21;0.43;;;0.33;;
2386;SDS011;49473;50.772;8.768;2023-03-14T11:00:51;0.60;;;0.40;;
2386;SDS011;49473;50.772;8.768;2023-03-14T11:03:24;1.03;;;0.57;;
2386;SDS011;49473;50.772;8.768;2023-03-14T11:05:53;1.43;;;0.30;;
2386;SDS011;49473;50.772;8.768;2023-03-14T11:08:24;0.63;;;0.40;;
2386;SDS011;49473;50.772;8.768;2023-03-14T11:11:01;0.40;;;0.30;;
2386;SDS011;49473;50.772;8.768;2023-03-14T11:13:35;1.30;;;0.57;;
2386;SDS011;49473;50.772;8.768;2023-03-14T11:16:08;1.67;;;0.50;;
2386;SDS011;49473;50.772;8.768;2023-03-14T11:18:49;0.80;;;0.60;;
2386;SDS011;49473;50.772;8.768;2023-03-14T11:21:24;1.63;;;0.60;;
2386;SDS011;49473;50.772;8.768;2023-03-14T11:24:01;0.43;;;0.40;;
2386;SDS011;49473;50.772;8.768;2023-03-14T11:26:39;0.70;;;0.40;;
2386;SDS011;49473;50.772;8.768;2023-03-14T11:29:16;0.70;;;0.47;;
2386;SDS011;49473;50.772;8.768;2023-03-14T11:31:47;1.37;;;0.63;;
2386;SDS011;49473;50.772;8.768;2023-03-14T11:34:15;1.30;;;0.60;;
2386;SDS011;49473;50.772;8.768;2023-03-14T11:36:44;1.50;;;0.70;;
2386;SDS011;49473;50.772;8.768;2023-03-14T11:39:18;1.20;;;0.47;;
2386;SDS011;49473;50.772;8.768;2023-03-14T11:41:49;10.73;;;0.90;;
2386;SDS011;49473;50.772;8.768;2023-03-14T11:44:18;0.60;;;0.33;;
2386;SDS011;49473;50.772;8.768;2023-03-14T11:46:47;0.50;;;0.50;;
2386;SDS011;49473;50.772;8.768;2023-03-14T11:49:21;1.53;;;0.50;;
2386;SDS011;49473;50.772;8.768;2023-03-14T11:51:57;0.73;;;0.33;;
2386;SDS011;49473;50.772;8.768;2023-03-14T11:54:30;1.00;;;1.00;;
2386;SDS011;49473;50.772;8.768;2023-03-14T11:57:04;1.53;;;0.33;;
2386;SDS011;49473;50.772;8.768;2023-03-14T11:59:39;0.40;;;0.30;;
2386;SDS011;49473;50.772;8.768;2023-03-14T12:02:13;0.30;;;0.30;;
2386;SDS011;49473;50.772;8.768;2023-03-14T12:04:50;0.40;;;0.30;;
2386;SDS011;49473;50.772;8.768;2023-03-14T12:07:25;0.73;;;0.30;;
2386;SDS011;49473;50.772;8.768;2023-03-14T12:09:57;0.30;;;0.30;;
2386;SDS011;49473;50.772;8.768;2023-03-14T12:12:25;0.40;;;0.30;;
2386;SDS011;49473;50.772;8.768;2023-03-14T12:14:54;0.40;;;0.30;;
2386;SDS011;49473;50.772;8.768;2023-03-14T12:17:24;0.40;;;0.37;;
2386;SDS011;49473;50.772;8.768;2023-03-14T12:20:00;0.40;;;0.40;;
2386;SDS011;49473;50.772;8.768;2023-03-14T12:22:31;0.40;;;0.30;;
2386;SDS011;49473;50.772;8.768;2023-03-14T12:25:02;0.30;;;0.20;;
2386;SDS011;49473;50.772;8.768;2023-03-14T12:27:42;0.40;;;0.30;;
2386;SDS011;49473;50.772;8.768;2023-03-14T12:30:16;0.40;;;0.30;;
2386;SDS011;49473;50.772;8.768;2023-03-14T12:35:57;0.40;;;0.30;;
2386;SDS011;49473;50.772;8.768;2023-03-14T12:38:27;0.40;;;0.30;;
2386;SDS011;49473;50.772;8.768;2023-03-14T12:41:12;0.40;;;0.30;;
2386;SDS011;49473;50.772;8.768;2023-03-14T12:43:44;0.50;;;0.40;;
2386;SDS011;49473;50.772;8.768;2023-03-14T12:46:15;0.40;;;0.30;;
2386;SDS011;49473;50.772;8.768;2023-03-14T12:48:47;0.40;;;0.40;;
2386;SDS011;49473;50.772;8.768;2023-03-14T12:51:16;0.40;;;0.40;;
2386;SDS011;49473;50.772;8.768;2023-03-14T12:57:04;0.60;;;0.30;;
2386;SDS011;49473;50.772;8.768;2023-03-14T12:59:42;0.43;;;0.30;;
2386;SDS011;49473;50.772;8.768;2023-03-14T13:02:15;0.40;;;0.40;;
2386;SDS011;49473;50.772;8.768;2023-03-14T13:04:50;0.43;;;0.43;;
2386;SDS011;49473;50.772;8.768;2023-03-14T13:07:29;0.50;;;0.30;;
2386;SDS011;49473;50.772;8.768;2023-03-14T13:10:05;0.40;;;0.40;;
2386;SDS011;49473;50.772;8.768;2023-03-14T13:12:47;0.83;;;0.50;;
2386;SDS011;49473;50.772;8.768;2023-03-14T13:15:21;0.70;;;0.40;;
2386;SDS011;49473;50.772;8.768;2023-03-14T13:17:52;0.40;;;0.40;;
2386;SDS011;49473;50.772;8.768;2023-03-14T13:20:23;0.43;;;0.40;;
2386;SDS011;49473;50.772;8.768;2023-03-14T13:22:55;1.43;;;0.50;;
2386;SDS011;49473;50.772;8.768;2023-03-14T13:25:22;2.37;;;0.77;;
2386;SDS011;49473;50.772;8.768;2023-03-14T13:27:48;0.40;;;0.40;;
2386;SDS011;49473;50.772;8.768;2023-03-14T13:30:22;0.30;;;0.30;;
2386;SDS011;49473;50.772;8.768;2023-03-14T13:32:52;0.47;;;0.40;;
2386;SDS011;49473;50.772;8.768;2023-03-14T13:35:21;0.40;;;0.40;;
2386;SDS011;49473;50.772;8.768;2023-03-14T13:37:56;0.40;;;0.40;;
2386;SDS011;49473;50.772;8.768;2023-03-14T13:40:25;0.50;;;0.40;;
2386;SDS011;49473;50.772;8.768;2023-03-14T13:45:44;0.40;;;0.30;;
2386;SDS011;49473;50.772;8.768;2023-03-14T13:48:16;0.40;;;0.40;;
2386;SDS011;49473;50.772;8.768;2023-03-14T13:50:54;1.00;;;0.77;;
2386;SDS011;49473;50.772;8.768;2023-03-14T13:53:25;0.97;;;0.50;;
2386;SDS011;49473;50.772;8.768;2023-03-14T13:55:52;0.60;;;0.50;;
2386;SDS011;49473;50.772;8.768;2023-03-14T13:58:20;1.00;;;0.50;;
2386;SDS011;49473;50.772;8.768;2023-03-14T14:01:00;0.37;;;0.30;;
2386;SDS011;49473;50.772;8.768;2023-03-14T14:03:33;0.50;;;0.43;;
2386;SDS011;49473;50.772;8.768;2023-03-14T14:06:03;1.23;;;0.50;;
2386;SDS011;49473;50.772;8.768;2023-03-14T14:08:33;0.70;;;0.37;;
2386;SDS011;49473;50.772;8.768;2023-03-14T14:11:01;0.50;;;0.40;;
2386;SDS011;49473;50.772;8.768;2023-03-14T14:13:31;0.40;;;0.37;;
2386;SDS011;49473;50.772;8.768;2023-03-14T14:16:02;0.40;;;0.40;;
2386;SDS011;49473;50.772;8.768;2023-03-14T14:18:30;0.47;;;0.40;;
2386;SDS011;49473;50.772;8.768;2023-03-14T14:20:58;0.40;;;0.40;;
2386;SDS011;49473;50.772;8.768;2023-03-14T14:23:26;0.67;;;0.47;;
2386;SDS011;49473;50.772;8.768;2023-03-14T14:25:55;0.50;;;0.50;;
2386;SDS011;49473;50.772;8.768;2023-03-14T14:28:24;2.40;;;1.00;;
2386;SDS011;49473;50.772;8.768;2023-03-14T14:31:01;1.07;;;0.80;;
2386;SDS011;49473;50.772;8.768;2023-03-14T14:33:37;1.80;;;0.77;;
2386;SDS011;49473;50.772;8.768;2023-03-14T14:36:11;1.93;;;0.77;;
2386;SDS011;49473;50.772;8.768;2023-03-14T14:38:42;1.40;;;0.97;;
2386;SDS011;49473;50.772;8.768;2023-03-14T14:41:14;1.10;;;0.50;;
2386;SDS011;49473;50.772;8.768;2023-03-14T14:43:41;1.10;;;0.80;;
2386;SDS011;49473;50.772;8.768;2023-03-14T14:46:09;3.53;;;1.10;;
2386;SDS011;49473;50.772;8.768;2023-03-14T14:48:42;2.43;;;0.80;;
2386;SDS011;49473;50.772;8.768;2023-03-14T14:51:10;0.60;;;0.50;;
2386;SDS011;49473;50.772;8.768;2023-03-14T14:53:37;0.50;;;0.40;;
2386;SDS011;49473;50.772;8.768;2023-03-14T14:56:06;0.50;;;0.50;;
2386;SDS011;49473;50.772;8.768;2023-03-14T14:58:43;1.27;;;0.60;;
2386;SDS011;49473;50.772;8.768;2023-03-14T15:01:14;0.40;;;0.40;;
2386;SDS011;49473;50.772;8.768;2023-03-14T15:03:42;0.90;;;0.60;;
2386;SDS011;49473;50.772;8.768;2023-03-14T15:06:11;1.47;;;0.50;;
2386;SDS011;49473;50.772;8.768;2023-03-14T15:08:39;1.13;;;0.67;;
2386;SDS011;49473;50.772;8.768;2023-03-14T15:11:08;0.70;;;0.60;;
2386;SDS011;49473;50.772;8.768;2023-03-14T15:13:41;0.60;;;0.50;;
2386;SDS011;49473;50.772;8.768;2023-03-14T15:16:08;0.40;;;0.40;;
2386;SDS011;49473;50.772;8.768;2023-03-14T15:18:37;0.53;;;0.53;;
2386;SDS011;49473;50.772;8.768;2023-03-14T15:21:04;0.90;;;0.50;;
2386;SDS011;49473;50.772;8.768;2023-03-14T15:23:31;0.50;;;0.40;;